Time;durP1;ratioP1;P1;durP2;ratioP2;P2;SDS_P1;SDS_P2;PMS_P1;PMS_P2;Temp;Humidity;BMP_temperature;BMP_pressure;BME280_temperature;BME280_humidity;BME280_pressure;Samples;Min_cycle;Max_cycle;Signal;HPM_P1;HPM_P2
2021/05/14 00:02:11;;;;;;;2.50;1.40;;;;;;;;;;10522181;28;20284;-69
2021/05/14 00:07:13;;;;;;;3.27;1.50;;;;;;;;;;10528596;28;20230;-70
2021/05/14 00:12:18;;;;;;;3.90;1.60;;;;;;;;;;10525968;28;20318;-70
2021/05/14 00:17:20;;;;;;;3.13;1.70;;;;;;;;;;10529115;28;20287;-69
2021/05/14 00:22:22;;;;;;;2.27;1.40;;;;;;;;;;10532309;28;20212;-70
2021/05/14 00:27:25;;;;;;;2.77;1.50;;;;;;;;;;10520491;28;20576;-70
2021/05/14 00:32:27;;;;;;;2.73;1.50;;;;;;;;;;10530132;28;20688;-70
2021/05/14 00:37:29;;;;;;;3.57;1.60;;;;;;;;;;10526561;28;20223;-70
2021/05/14 00:42:32;;;;;;;3.57;1.50;;;;;;;;;;10523808;28;20226;-72
2021/05/14 00:47:34;;;;;;;3.03;1.40;;;;;;;;;;10523807;28;20207;-70
2021/05/14 00:52:37;;;;;;;3.23;1.30;;;;;;;;;;10529755;28;20280;-70
2021/05/14 00:57:40;;;;;;;2.27;1.37;;;;;;;;;;10529651;28;20344;-70
2021/05/14 01:02:42;;;;;;;3.47;1.50;;;;;;;;;;10527886;28;20614;-71
2021/05/14 01:07:44;;;;;;;3.87;1.40;;;;;;;;;;10522943;28;20265;-70
2021/05/14 01:12:47;;;;;;;3.73;1.53;;;;;;;;;;10528111;28;20242;-70
2021/05/14 01:17:49;;;;;;;2.67;1.33;;;;;;;;;;10524028;28;20238;-71
2021/05/14 01:22:52;;;;;;;2.70;1.30;;;;;;;;;;10523782;28;20306;-71
2021/05/14 01:27:54;;;;;;;1.27;1.00;;;;;;;;;;10526921;28;20680;-72
2021/05/14 01:32:56;;;;;;;2.03;1.20;;;;;;;;;;10525363;28;20212;-72
2021/05/14 01:37:59;;;;;;;4.90;1.27;;;;;;;;;;10524805;28;20318;-73
2021/05/14 01:43:01;;;;;;;2.37;1.20;;;;;;;;;;10526075;28;20280;-71
2021/05/14 01:48:04;;;;;;;1.93;1.07;;;;;;;;;;10520119;28;20622;-70
2021/05/14 01:53:07;;;;;;;5.97;1.70;;;;;;;;;;10523514;28;20679;-72
2021/05/14 01:58:09;;;;;;;3.47;1.10;;;;;;;;;;10524282;28;20216;-69
2021/05/14 02:03:11;;;;;;;3.37;1.30;;;;;;;;;;10516067;28;20226;-71
2021/05/14 02:08:14;;;;;;;2.07;1.40;;;;;;;;;;10523190;28;20199;-71
2021/05/14 02:13:16;;;;;;;1.37;1.00;;;;;;;;;;10517512;28;20233;-71
2021/05/14 02:18:18;;;;;;;2.23;1.40;;;;;;;;;;10527792;28;20284;-70
2021/05/14 02:23:21;;;;;;;3.13;1.57;;;;;;;;;;10522892;28;20292;-71
2021/05/14 02:28:23;;;;;;;5.07;1.30;;;;;;;;;;10522888;28;20309;-70
2021/05/14 02:33:26;;;;;;;3.53;1.30;;;;;;;;;;10515593;28;20584;-70
2021/05/14 02:38:29;;;;;;;2.87;1.37;;;;;;;;;;10514834;28;20294;-70
2021/05/14 02:43:31;;;;;;;3.10;1.30;;;;;;;;;;10527989;28;20211;-70
2021/05/14 02:48:33;;;;;;;2.73;1.40;;;;;;;;;;10521693;28;20226;-70
2021/05/14 02:53:37;;;;;;;2.23;1.17;;;;;;;;;;10524365;28;20200;-70
2021/05/14 02:58:39;;;;;;;4.80;1.40;;;;;;;;;;10517104;28;20291;-71
2021/05/14 03:03:41;;;;;;;2.77;1.10;;;;;;;;;;10523295;28;20192;-69
2021/05/14 03:08:44;;;;;;;2.77;1.23;;;;;;;;;;10524833;28;20203;-70
2021/05/14 03:13:46;;;;;;;2.97;1.30;;;;;;;;;;10529009;28;20191;-71
2021/05/14 03:18:48;;;;;;;1.73;1.20;;;;;;;;;;10528662;28;20337;-70
2021/05/14 03:23:52;;;;;;;2.83;1.50;;;;;;;;;;10528463;28;20213;-70
2021/05/14 03:28:54;;;;;;;2.37;1.10;;;;;;;;;;10531310;28;20282;-70
2021/05/14 03:33:56;;;;;;;2.70;1.30;;;;;;;;;;10527207;28;20192;-71
2021/05/14 03:38:59;;;;;;;2.63;1.23;;;;;;;;;;10523825;28;20230;-71
2021/05/14 03:44:01;;;;;;;1.90;1.10;;;;;;;;;;10527790;28;20192;-70
2021/05/14 03:49:03;;;;;;;3.20;1.33;;;;;;;;;;10527974;28;20208;-70
2021/05/14 03:54:07;;;;;;;3.80;1.50;;;;;;;;;;10526298;28;20203;-70
2021/05/14 03:59:09;;;;;;;2.97;1.30;;;;;;;;;;10529573;28;20247;-71
2021/05/14 04:04:11;;;;;;;2.70;1.40;;;;;;;;;;10507212;28;20856;-71
2021/05/14 04:09:18;;;;;;;2.83;1.30;;;;;;;;;;10512857;28;20728;-70
2021/05/14 04:14:29;;;;;;;2.47;1.30;;;;;;;;;;10518995;28;20228;-70
2021/05/14 04:19:41;;;;;;;3.53;1.40;;;;;;;;;;10528602;28;20215;-70
2021/05/14 04:24:44;;;;;;;3.40;1.53;;;;;;;;;;10525828;28;20192;-70
2021/05/14 04:29:46;;;;;;;3.07;1.47;;;;;;;;;;10522552;28;20772;-70
2021/05/14 04:34:48;;;;;;;3.77;1.60;;;;;;;;;;10520065;28;20254;-70
2021/05/14 04:39:51;;;;;;;3.83;1.63;;;;;;;;;;10513109;28;20243;-70
2021/05/14 04:44:53;;;;;;;2.73;1.37;;;;;;;;;;10526249;28;20594;-69
2021/05/14 04:49:55;;;;;;;3.07;1.37;;;;;;;;;;10524639;28;20220;-69
2021/05/14 04:54:58;;;;;;;2.17;1.00;;;;;;;;;;10526592;28;20287;-71
2021/05/14 05:00:00;;;;;;;1.90;1.00;;;;;;;;;;10513684;28;20216;-72
2021/05/14 05:05:02;;;;;;;4.07;1.30;;;;;;;;;;10518029;28;20324;-72
2021/05/14 05:10:06;;;;;;;3.23;1.30;;;;;;;;;;10517832;28;20250;-71
2021/05/14 05:15:10;;;;;;;3.93;1.40;;;;;;;;;;10517913;28;20284;-71
2021/05/14 05:20:12;;;;;;;1.63;1.10;;;;;;;;;;10523127;28;20217;-70
2021/05/14 05:25:15;;;;;;;1.73;1.07;;;;;;;;;;10512392;28;20191;-71
2021/05/14 05:30:19;;;;;;;3.03;1.20;;;;;;;;;;10516791;28;20315;-69
2021/05/14 05:35:22;;;;;;;2.83;1.20;;;;;;;;;;10520964;28;20238;-70
2021/05/14 05:40:25;;;;;;;3.10;0.90;;;;;;;;;;10519745;28;20690;-70
2021/05/14 05:45:27;;;;;;;1.90;1.20;;;;;;;;;;10521230;28;20184;-71
2021/05/14 05:50:29;;;;;;;2.23;1.00;;;;;;;;;;10519586;28;20234;-70
2021/05/14 05:55:32;;;;;;;3.37;1.10;;;;;;;;;;10525517;28;20575;-70
2021/05/14 06:00:34;;;;;;;3.50;1.70;;;;;;;;;;10520948;28;20231;-70
2021/05/14 06:05:36;;;;;;;4.10;1.87;;;;;;;;;;10527166;28;20230;-69
2021/05/14 06:10:40;;;;;;;2.17;1.23;;;;;;;;;;10522140;28;20231;-70
2021/05/14 06:15:43;;;;;;;1.90;1.10;;;;;;;;;;10524848;28;20308;-71
2021/05/14 06:20:46;;;;;;;2.87;0.93;;;;;;;;;;10528212;28;20222;-70
2021/05/14 06:25:49;;;;;;;2.50;0.90;;;;;;;;;;10517488;28;20203;-71
2021/05/14 06:30:51;;;;;;;1.27;0.80;;;;;;;;;;10525822;28;20272;-70
2021/05/14 06:35:53;;;;;;;1.80;0.90;;;;;;;;;;10514259;28;20250;-71
2021/05/14 06:40:56;;;;;;;1.37;0.83;;;;;;;;;;10519068;28;20250;-72
2021/05/14 06:46:01;;;;;;;1.37;0.87;;;;;;;;;;10512791;28;20635;-71
2021/05/14 06:51:09;;;;;;;1.73;0.70;;;;;;;;;;10524997;28;20220;-70
2021/05/14 06:56:12;;;;;;;3.03;0.80;;;;;;;;;;10520248;28;20680;-70
2021/05/14 07:01:14;;;;;;;1.67;0.80;;;;;;;;;;10521805;28;20266;-70
2021/05/14 07:06:16;;;;;;;1.23;0.70;;;;;;;;;;10524201;28;20193;-70
2021/05/14 07:11:19;;;;;;;1.87;0.80;;;;;;;;;;10519052;28;20303;-71
2021/05/14 07:16:21;;;;;;;1.40;0.73;;;;;;;;;;10514660;28;20552;-70
2021/05/14 07:21:24;;;;;;;2.17;0.90;;;;;;;;;;10520144;28;20219;-69
2021/05/14 07:26:30;;;;;;;2.50;0.80;;;;;;;;;;10522989;28;20279;-68
2021/05/14 07:31:38;;;;;;;1.73;0.87;;;;;;;;;;10516964;28;20275;-70
2021/05/14 07:36:41;;;;;;;0.83;0.80;;;;;;;;;;10520009;28;20202;-70
2021/05/14 07:41:44;;;;;;;0.70;0.70;;;;;;;;;;10522785;28;20304;-70
2021/05/14 07:46:46;;;;;;;2.22;0.90;;;;;;;;;;10530023;28;20195;-71
2021/05/14 07:51:48;;;;;;;1.15;0.90;;;;;;;;;;10530499;28;20268;-71
2021/05/14 07:56:51;;;;;;;1.90;1.00;;;;;;;;;;10525165;28;20227;-70
2021/05/14 08:01:55;;;;;;;2.22;1.00;;;;;;;;;;10528032;28;20212;-72
2021/05/14 08:06:57;;;;;;;1.30;1.20;;;;;;;;;;10531101;28;20192;-70
2021/05/14 08:12:04;;;;;;;2.13;1.10;;;;;;;;;;10530733;28;20235;-71
2021/05/14 08:17:06;;;;;;;2.50;1.17;;;;;;;;;;10529315;28;20238;-72
2021/05/14 08:22:08;;;;;;;1.80;1.00;;;;;;;;;;10526942;28;20212;-71
2021/05/14 08:27:11;;;;;;;1.73;1.08;;;;;;;;;;10524974;28;20191;-70
2021/05/14 08:32:13;;;;;;;2.83;1.02;;;;;;;;;;10527814;28;20273;-70
2021/05/14 08:37:15;;;;;;;2.50;1.15;;;;;;;;;;10527187;28;20256;-70
2021/05/14 08:42:18;;;;;;;1.75;1.08;;;;;;;;;;10515307;28;20312;-68
2021/05/14 08:47:21;;;;;;;1.15;0.80;;;;;;;;;;10518830;28;20184;-69
2021/05/14 08:52:23;;;;;;;1.38;0.90;;;;;;;;;;10519204;28;20212;-71
2021/05/14 08:57:26;;;;;;;1.38;0.82;;;;;;;;;;10528867;28;20223;-71
2021/05/14 09:02:29;;;;;;;1.75;1.02;;;;;;;;;;10529575;28;20250;-72
2021/05/14 09:07:43;;;;;;;1.38;1.10;;;;;;;;;;10520669;28;20258;-71
2021/05/14 09:12:50;;;;;;;1.95;1.00;;;;;;;;;;10522542;28;20306;-71
2021/05/14 09:18:06;;;;;;;1.25;0.90;;;;;;;;;;10526978;28;20216;-69
2021/05/14 09:23:24;;;;;;;2.15;0.85;;;;;;;;;;10509722;28;20215;-71
2021/05/14 09:28:31;;;;;;;1.42;1.02;;;;;;;;;;10506635;28;20184;-70
2021/05/14 09:33:33;;;;;;;1.65;1.02;;;;;;;;;;10500722;28;20980;-71
2021/05/14 09:38:43;;;;;;;0.93;0.85;;;;;;;;;;10506968;28;20204;-70
2021/05/14 09:44:02;;;;;;;1.77;0.90;;;;;;;;;;10505943;28;20268;-70
2021/05/14 09:49:05;;;;;;;1.58;0.95;;;;;;;;;;10499162;28;20695;-69
2021/05/14 09:54:27;;;;;;;2.05;0.90;;;;;;;;;;10504592;28;20643;-69
2021/05/14 09:59:31;;;;;;;2.10;1.02;;;;;;;;;;10495540;28;20216;-69
2021/05/14 10:04:36;;;;;;;2.08;1.13;;;;;;;;;;10504424;28;20207;-71
2021/05/14 10:09:39;;;;;;;1.80;1.05;;;;;;;;;;10494822;28;20219;-69
2021/05/14 10:14:43;;;;;;;0.95;0.80;;;;;;;;;;10501248;28;20280;-70
2021/05/14 10:19:46;;;;;;;1.27;1.00;;;;;;;;;;10492654;28;20310;-70
2021/05/14 10:24:51;;;;;;;2.10;0.80;;;;;;;;;;10501020;28;20599;-68
2021/05/14 10:29:55;;;;;;;1.33;0.80;;;;;;;;;;10509413;28;20220;-70
2021/05/14 10:35:02;;;;;;;1.42;1.10;;;;;;;;;;10526859;28;20199;-69
2021/05/14 10:40:04;;;;;;;1.10;1.00;;;;;;;;;;10520761;28;20227;-70
2021/05/14 10:45:28;;;;;;;1.52;0.90;;;;;;;;;;10521904;28;20654;-71
2021/05/14 10:50:32;;;;;;;2.03;0.85;;;;;;;;;;10518767;28;20223;-68
2021/05/14 10:55:35;;;;;;;2.90;1.20;;;;;;;;;;10524466;28;20701;-71
2021/05/14 11:00:39;;;;;;;1.58;0.77;;;;;;;;;;10524295;28;20220;-69
2021/05/14 11:05:42;;;;;;;4.32;0.98;;;;;;;;;;10521472;28;20196;-68
2021/05/14 11:10:58;;;;;;;3.33;1.73;;;;;;;;;;10517863;28;20274;-69
2021/05/14 11:16:15;;;;;;;1.70;0.80;;;;;;;;;;10528763;28;20260;-69
2021/05/14 11:21:19;;;;;;;0.93;0.60;;;;;;;;;;10527125;28;20246;-69
2021/05/14 11:26:25;;;;;;;0.75;0.70;;;;;;;;;;10532674;28;20183;-70
2021/05/14 11:31:28;;;;;;;1.58;0.98;;;;;;;;;;10531954;28;20566;-68
2021/05/14 11:36:31;;;;;;;1.90;0.80;;;;;;;;;;10532217;28;20792;-70
2021/05/14 11:41:33;;;;;;;2.50;0.85;;;;;;;;;;10519365;28;20345;-71
2021/05/14 11:46:35;;;;;;;2.35;0.90;;;;;;;;;;10531249;28;20226;-69
2021/05/14 11:51:39;;;;;;;3.85;1.60;;;;;;;;;;10532355;28;20234;-70
2021/05/14 11:56:42;;;;;;;2.13;0.73;;;;;;;;;;10526378;28;20298;-68
2021/05/14 12:01:44;;;;;;;2.75;0.88;;;;;;;;;;10527175;28;20230;-69
2021/05/14 12:06:48;;;;;;;1.58;0.90;;;;;;;;;;10529355;28;20194;-69
2021/05/14 12:11:50;;;;;;;1.67;0.73;;;;;;;;;;10528976;28;20721;-68
2021/05/14 12:16:52;;;;;;;1.92;0.70;;;;;;;;;;10529200;28;20675;-69
2021/05/14 12:22:08;;;;;;;1.35;0.88;;;;;;;;;;10517464;28;20317;-70
2021/05/14 12:27:10;;;;;;;1.52;0.80;;;;;;;;;;10520489;28;20227;-69
2021/05/14 12:32:13;;;;;;;0.93;0.73;;;;;;;;;;10529234;28;20670;-70
2021/05/14 12:37:16;;;;;;;2.00;1.08;;;;;;;;;;10523509;28;20296;-71
2021/05/14 12:42:24;;;;;;;1.70;1.00;;;;;;;;;;10524980;28;20260;-73
2021/05/14 12:47:28;;;;;;;1.92;1.10;;;;;;;;;;10522514;28;20287;-70
2021/05/14 12:52:32;;;;;;;1.02;0.88;;;;;;;;;;10526225;28;20286;-70
2021/05/14 12:57:35;;;;;;;0.80;0.80;;;;;;;;;;10528764;28;20247;-69
2021/05/14 13:02:37;;;;;;;1.33;1.05;;;;;;;;;;10514491;28;20216;-71
2021/05/14 13:07:57;;;;;;;1.48;0.65;;;;;;;;;;10524236;28;20195;-71
2021/05/14 13:12:59;;;;;;;1.65;0.70;;;;;;;;;;10519606;28;20740;-70
2021/05/14 13:18:02;;;;;;;1.58;1.10;;;;;;;;;;10528315;28;20219;-69
2021/05/14 13:23:04;;;;;;;5.25;4.28;;;;;;;;;;10523146;28;20291;-69
2021/05/14 13:28:07;;;;;;;1.42;1.08;;;;;;;;;;10517719;28;20290;-70
2021/05/14 13:33:09;;;;;;;0.82;0.70;;;;;;;;;;10523764;28;20650;-71
2021/05/14 13:38:11;;;;;;;1.08;0.60;;;;;;;;;;10522401;28;20305;-70
2021/05/14 13:43:13;;;;;;;3.22;1.10;;;;;;;;;;10519622;28;20242;-70
2021/05/14 13:48:15;;;;;;;1.30;0.95;;;;;;;;;;10521163;28;20432;-70
2021/05/14 13:53:23;;;;;;;2.78;1.00;;;;;;;;;;10526990;28;20212;-67
2021/05/14 13:58:27;;;;;;;1.05;0.80;;;;;;;;;;10520562;28;20664;-68
2021/05/14 14:03:29;;;;;;;1.35;0.90;;;;;;;;;;10527101;28;20200;-69
2021/05/14 14:08:33;;;;;;;1.85;0.80;;;;;;;;;;10512270;28;20877;-70
2021/05/14 14:13:35;;;;;;;1.63;0.88;;;;;;;;;;10506645;28;20593;-70
2021/05/14 14:18:37;;;;;;;1.75;0.70;;;;;;;;;;10503506;28;20242;-70
2021/05/14 14:23:39;;;;;;;1.23;0.82;;;;;;;;;;10514127;28;20318;-70
2021/05/14 14:28:42;;;;;;;1.08;0.60;;;;;;;;;;10522336;28;20192;-69
2021/05/14 14:33:44;;;;;;;1.27;0.80;;;;;;;;;;10520136;28;20279;-70
2021/05/14 14:38:47;;;;;;;2.87;1.83;;;;;;;;;;10507785;28;20219;-70
2021/05/14 14:43:49;;;;;;;0.60;0.60;;;;;;;;;;10523736;28;20674;-69
2021/05/14 14:48:51;;;;;;;1.10;0.80;;;;;;;;;;10528734;28;20187;-70
2021/05/14 14:53:54;;;;;;;0.60;0.60;;;;;;;;;;10523283;28;20284;-70
2021/05/14 14:58:56;;;;;;;1.50;1.00;;;;;;;;;;10528542;28;20227;-71
2021/05/14 15:03:59;;;;;;;0.98;0.80;;;;;;;;;;10526350;28;20200;-70
2021/05/14 15:09:02;;;;;;;1.48;0.80;;;;;;;;;;10529505;28;20216;-71
2021/05/14 15:14:04;;;;;;;1.13;0.68;;;;;;;;;;10525663;28;20237;-70
2021/05/14 15:19:06;;;;;;;0.82;0.60;;;;;;;;;;10527828;28;20223;-71
2021/05/14 15:24:10;;;;;;;1.15;0.68;;;;;;;;;;10527328;28;20196;-72
2021/05/14 15:29:12;;;;;;;1.20;0.83;;;;;;;;;;10518492;28;20204;-70
2021/05/14 15:34:14;;;;;;;1.13;0.63;;;;;;;;;;10530504;28;20184;-71
2021/05/14 15:39:17;;;;;;;0.67;0.60;;;;;;;;;;10527311;28;20219;-70
2021/05/14 15:44:19;;;;;;;2.07;1.00;;;;;;;;;;10521005;28;20195;-70
2021/05/14 15:49:21;;;;;;;0.40;0.40;;;;;;;;;;10512626;28;20671;-70
2021/05/14 15:54:27;;;;;;;0.67;0.50;;;;;;;;;;10525736;28;20206;-69
2021/05/14 15:59:29;;;;;;;4.10;1.50;;;;;;;;;;10526549;28;20691;-70
2021/05/14 16:04:32;;;;;;;1.30;1.03;;;;;;;;;;10510078;28;20250;-69
2021/05/14 16:09:35;;;;;;;1.10;0.70;;;;;;;;;;10522203;28;20795;-70
2021/05/14 16:14:37;;;;;;;1.23;0.70;;;;;;;;;;10520537;28;20231;-70
2021/05/14 16:19:41;;;;;;;1.30;1.00;;;;;;;;;;10520866;28;20243;-71
2021/05/14 16:24:44;;;;;;;1.50;0.60;;;;;;;;;;10520295;28;20195;-68
2021/05/14 16:29:48;;;;;;;2.53;1.40;;;;;;;;;;10525512;28;20219;-68
2021/05/14 16:34:51;;;;;;;1.43;0.83;;;;;;;;;;10520740;28;20650;-69
2021/05/14 16:39:54;;;;;;;2.00;0.70;;;;;;;;;;10515597;28;20219;-67
2021/05/14 16:44:56;;;;;;;1.40;0.90;;;;;;;;;;10524846;28;20191;-69
2021/05/14 16:49:58;;;;;;;2.00;0.60;;;;;;;;;;10506057;28;20311;-68
2021/05/14 16:55:01;;;;;;;2.73;0.70;;;;;;;;;;10518971;28;20194;-68
2021/05/14 17:00:03;;;;;;;1.37;1.03;;;;;;;;;;10522392;28;20714;-70
2021/05/14 17:05:06;;;;;;;3.07;1.20;;;;;;;;;;10522153;28;20187;-69
2021/05/14 17:10:09;;;;;;;1.43;0.50;;;;;;;;;;10518537;28;20340;-68
2021/05/14 17:15:12;;;;;;;4.27;2.03;;;;;;;;;;10521433;28;20192;-69
2021/05/14 17:20:14;;;;;;;1.67;0.73;;;;;;;;;;10525497;28;20674;-69
2021/05/14 17:25:17;;;;;;;1.50;0.70;;;;;;;;;;10519852;28;20219;-69
2021/05/14 17:30:19;;;;;;;2.13;0.80;;;;;;;;;;10525757;28;20287;-70
2021/05/14 17:35:21;;;;;;;1.77;1.00;;;;;;;;;;10528745;28;20195;-70
2021/05/14 17:40:24;;;;;;;1.20;0.73;;;;;;;;;;10530912;28;20716;-69
2021/05/14 17:45:26;;;;;;;3.40;1.20;;;;;;;;;;10526883;28;20231;-68
2021/05/14 17:50:28;;;;;;;3.37;1.37;;;;;;;;;;10524394;28;20239;-69
2021/05/14 17:55:31;;;;;;;2.20;0.90;;;;;;;;;;10525406;28;20699;-70
2021/05/14 18:00:34;;;;;;;2.03;0.90;;;;;;;;;;10522988;28;20239;-70
2021/05/14 18:05:36;;;;;;;3.90;1.60;;;;;;;;;;10527249;28;20204;-70
2021/05/14 18:10:40;;;;;;;2.50;1.40;;;;;;;;;;10526973;28;20219;-69
2021/05/14 18:15:43;;;;;;;1.93;1.20;;;;;;;;;;10525126;28;20232;-69
2021/05/14 18:20:46;;;;;;;2.17;1.00;;;;;;;;;;10519603;28;20691;-69
2021/05/14 18:25:48;;;;;;;2.73;0.97;;;;;;;;;;10521476;28;20210;-70
2021/05/14 18:30:51;;;;;;;2.70;1.20;;;;;;;;;;10513404;28;20215;-70
2021/05/14 18:35:53;;;;;;;2.13;1.07;;;;;;;;;;10520243;28;20192;-69
2021/05/14 18:40:57;;;;;;;2.30;1.20;;;;;;;;;;10522282;28;20219;-70
2021/05/14 18:46:00;;;;;;;3.23;1.07;;;;;;;;;;10507251;28;20225;-70
2021/05/14 18:51:02;;;;;;;2.60;1.20;;;;;;;;;;10513963;28;20215;-70
2021/05/14 18:56:05;;;;;;;2.87;1.30;;;;;;;;;;10512974;28;20188;-69
2021/05/14 19:01:08;;;;;;;5.20;1.73;;;;;;;;;;10519311;28;20220;-69
2021/05/14 19:06:10;;;;;;;4.93;2.03;;;;;;;;;;10511976;28;20661;-68
2021/05/14 19:11:14;;;;;;;4.80;1.50;;;;;;;;;;10515900;28;20219;-68
2021/05/14 19:16:16;;;;;;;5.73;2.10;;;;;;;;;;10520008;28;20196;-68
2021/05/14 19:21:19;;;;;;;5.07;1.77;;;;;;;;;;10516134;28;20280;-70
2021/05/14 19:37:17;;;;;;;7.27;3.37;;;;;;;;;;10528348;28;20218;-68
2021/05/14 19:47:50;;;;;;;5.90;2.17;;;;;;;;;;10472599;28;20207;-71
2021/05/14 19:52:52;;;;;;;5.00;2.07;;;;;;;;;;10523797;28;20208;-69
2021/05/14 19:57:55;;;;;;;4.70;2.30;;;;;;;;;;10525470;28;20203;-69
2021/05/14 20:02:57;;;;;;;5.30;2.37;;;;;;;;;;10516197;28;20442;-71
2021/05/14 20:07:59;;;;;;;5.73;2.60;;;;;;;;;;10512496;28;20281;-71
2021/05/14 20:13:05;;;;;;;8.57;3.00;;;;;;;;;;10528514;28;20262;-68
2021/05/14 20:18:07;;;;;;;6.90;2.90;;;;;;;;;;10521878;28;20766;-71
2021/05/14 20:23:09;;;;;;;8.80;4.43;;;;;;;;;;10519396;28;20309;-69
2021/05/14 20:28:12;;;;;;;6.37;3.00;;;;;;;;;;10525567;28;20187;-69
2021/05/14 20:33:14;;;;;;;6.37;3.10;;;;;;;;;;10524479;28;20215;-71
2021/05/14 20:38:22;;;;;;;3.40;1.63;;;;;;;;;;10525139;28;20630;-71
2021/05/14 20:43:25;;;;;;;4.67;1.90;;;;;;;;;;10515350;28;20212;-70
2021/05/14 20:48:28;;;;;;;4.63;1.57;;;;;;;;;;10527383;28;20241;-70
2021/05/14 20:53:30;;;;;;;3.00;0.87;;;;;;;;;;10509660;28;20342;-71
2021/05/14 20:58:33;;;;;;;3.07;0.90;;;;;;;;;;10518410;28;20239;-70
2021/05/14 21:03:35;;;;;;;1.93;1.03;;;;;;;;;;10529193;28;20330;-71
2021/05/14 21:08:39;;;;;;;2.87;1.00;;;;;;;;;;10512382;28;20238;-72
2021/05/14 21:13:42;;;;;;;1.80;0.80;;;;;;;;;;10523246;28;20227;-72
2021/05/14 21:18:46;;;;;;;1.73;0.70;;;;;;;;;;10512427;28;20212;-72
2021/05/14 21:23:48;;;;;;;2.00;0.90;;;;;;;;;;10527122;28;20196;-71
2021/05/14 21:28:52;;;;;;;1.23;0.70;;;;;;;;;;10517990;28;20492;-70
2021/05/14 21:33:55;;;;;;;3.20;0.97;;;;;;;;;;10518009;28;20204;-71
2021/05/14 21:38:56;;;;;;;2.47;0.83;;;;;;;;;;10515453;28;20204;-70
2021/05/14 21:43:58;;;;;;;1.27;0.80;;;;;;;;;;10525743;28;20202;-73
2021/05/14 21:48:59;;;;;;;0.60;0.60;;;;;;;;;;10522428;28;20215;-71
2021/05/14 21:54:00;;;;;;;3.80;0.70;;;;;;;;;;10514627;28;20243;-70
2021/05/14 21:59:02;;;;;;;2.53;0.90;;;;;;;;;;10513842;28;20233;-70
2021/05/14 22:04:03;;;;;;;1.93;0.90;;;;;;;;;;10517046;28;20199;-71
2021/05/14 22:09:04;;;;;;;1.20;0.80;;;;;;;;;;10504026;28;20702;-68
2021/05/14 22:14:07;;;;;;;2.63;0.90;;;;;;;;;;10515240;28;20306;-72
2021/05/14 22:19:08;;;;;;;2.23;0.80;;;;;;;;;;10519312;28;20598;-71
2021/05/14 22:24:09;;;;;;;1.07;0.70;;;;;;;;;;10513029;28;20236;-70
2021/05/14 22:29:11;;;;;;;3.07;0.90;;;;;;;;;;10515220;28;20204;-71
2021/05/14 22:34:12;;;;;;;1.80;0.90;;;;;;;;;;10513473;28;20220;-69
2021/05/14 22:39:14;;;;;;;4.43;1.00;;;;;;;;;;10516684;28;20683;-70
2021/05/14 22:44:15;;;;;;;0.90;0.70;;;;;;;;;;10524923;28;20554;-70
2021/05/14 22:49:16;;;;;;;1.83;0.80;;;;;;;;;;10521084;28;20297;-70
2021/05/14 22:54:17;;;;;;;1.70;0.87;;;;;;;;;;10507464;28;20635;-69
2021/05/14 22:59:19;;;;;;;0.97;0.73;;;;;;;;;;10513730;28;20307;-71
2021/05/14 23:04:20;;;;;;;2.10;0.83;;;;;;;;;;10518777;28;20184;-72
2021/05/14 23:09:21;;;;;;;1.73;0.70;;;;;;;;;;10520047;28;20578;-70
2021/05/14 23:14:22;;;;;;;2.83;0.90;;;;;;;;;;10532179;28;20650;-72
2021/05/14 23:19:23;;;;;;;2.80;0.80;;;;;;;;;;10524675;28;20449;-70
2021/05/14 23:24:24;;;;;;;1.60;1.03;;;;;;;;;;10528335;28;20573;-72
2021/05/14 23:29:26;;;;;;;3.03;1.27;;;;;;;;;;10524492;28;20215;-75
2021/05/14 23:34:27;;;;;;;2.80;1.37;;;;;;;;;;10522313;28;20279;-69
2021/05/14 23:39:28;;;;;;;1.67;1.07;;;;;;;;;;10514118;28;20676;-69
2021/05/14 23:44:30;;;;;;;2.80;0.97;;;;;;;;;;10519316;28;20313;-69
2021/05/14 23:49:31;;;;;;;4.20;1.30;;;;;;;;;;10521881;28;20253;-69
2021/05/14 23:54:32;;;;;;;2.43;0.90;;;;;;;;;;10519465;28;20520;-70
2021/05/14 23:59:34;;;;;;;1.70;1.00;;;;;;;;;;10522131;28;20224;-70
